sensor_id;sensor_type;location;lat;lon;timestamp;temperature;humidity
35027;DHT22;60696;51.426;6.934;2024-01-10T05:01:14;-6.20;1.00
35027;DHT22;60696;51.426;6.934;2024-01-10T05:03:40;-6.20;1.00
35027;DHT22;60696;51.426;6.934;2024-01-10T05:06:06;-6.20;1.00
35027;DHT22;60696;51.426;6.934;2024-01-10T05:08:31;-6.20;1.00
35027;DHT22;60696;51.426;6.934;2024-01-10T05:10:57;-6.20;1.00
35027;DHT22;60696;51.426;6.934;2024-01-10T05:13:23;-6.20;1.00
35027;DHT22;60696;51.426;6.934;2024-01-10T05:15:48;-6.10;1.00
35027;DHT22;60696;51.426;6.934;2024-01-10T05:18:14;-6.10;1.00
35027;DHT22;60696;51.426;6.934;2024-01-10T05:20:40;-6.10;1.00
35027;DHT22;60696;51.426;6.934;2024-01-10T05:23:06;-6.00;1.00
35027;DHT22;60696;51.426;6.934;2024-01-10T05:25:31;-6.00;1.00
35027;DHT22;60696;51.426;6.934;2024-01-10T05:27:57;-6.00;1.00
35027;DHT22;60696;51.426;6.934;2024-01-10T05:30:23;-6.00;1.00
35027;DHT22;60696;51.426;6.934;2024-01-10T05:32:49;-5.90;1.00
35027;DHT22;60696;51.426;6.934;2024-01-10T05:35:15;-6.00;1.00
35027;DHT22;60696;51.426;6.934;2024-01-10T05:37:41;-6.00;1.00
35027;DHT22;60696;51.426;6.934;2024-01-10T05:40:07;-5.90;1.00
35027;DHT22;60696;51.426;6.934;2024-01-10T05:42:32;-6.00;1.00
35027;DHT22;60696;51.426;6.934;2024-01-10T05:45:01;-6.00;1.00
35027;DHT22;60696;51.426;6.934;2024-01-10T05:47:27;-5.90;1.00
35027;DHT22;60696;51.426;6.934;2024-01-10T05:49:53;-5.90;1.00
35027;DHT22;60696;51.426;6.934;2024-01-10T05:52:19;-6.00;1.00
35027;DHT22;60696;51.426;6.934;2024-01-10T05:54:46;-5.90;1.00
35027;DHT22;60696;51.426;6.934;2024-01-10T05:57:13;-5.90;1.00
35027;DHT22;60696;51.426;6.934;2024-01-10T05:59:39;-5.80;1.00
35027;DHT22;60696;51.426;6.934;2024-01-10T06:02:05;-5.80;1.00
35027;DHT22;60696;51.426;6.934;2024-01-10T06:04:30;-5.80;1.00
35027;DHT22;60696;51.426;6.934;2024-01-10T06:07:00;-5.90;1.00
35027;DHT22;60696;51.426;6.934;2024-01-10T06:09:26;-5.80;1.00
35027;DHT22;60696;51.426;6.934;2024-01-10T06:11:52;-5.80;1.00
35027;DHT22;60696;51.426;6.934;2024-01-10T06:14:18;-5.80;1.00
35027;DHT22;60696;51.426;6.934;2024-01-10T06:16:44;-5.80;1.00
35027;DHT22;60696;51.426;6.934;2024-01-10T06:19:13;-5.90;1.00
35027;DHT22;60696;51.426;6.934;2024-01-10T06:21:39;-5.90;1.00
35027;DHT22;60696;51.426;6.934;2024-01-10T06:24:05;-5.80;1.00
35027;DHT22;60696;51.426;6.934;2024-01-10T06:26:30;-5.90;1.00
35027;DHT22;60696;51.426;6.934;2024-01-10T06:28:56;-5.90;1.00
35027;DHT22;60696;51.426;6.934;2024-01-10T06:31:21;-5.90;1.00
35027;DHT22;60696;51.426;6.934;2024-01-10T06:33:47;-6.00;1.00
35027;DHT22;60696;51.426;6.934;2024-01-10T06:36:13;-5.90;1.00
35027;DHT22;60696;51.426;6.934;2024-01-10T06:38:39;-5.90;1.00
35027;DHT22;60696;51.426;6.934;2024-01-10T06:41:09;-6.00;1.00
35027;DHT22;60696;51.426;6.934;2024-01-10T06:43:36;-5.90;1.00
35027;DHT22;60696;51.426;6.934;2024-01-10T06:46:01;-5.90;1.00
35027;DHT22;60696;51.426;6.934;2024-01-10T06:48:28;-6.00;1.00
35027;DHT22;60696;51.426;6.934;2024-01-10T06:50:54;-6.00;1.00
35027;DHT22;60696;51.426;6.934;2024-01-10T06:53:21;-6.10;1.00
35027;DHT22;60696;51.426;6.934;2024-01-10T06:55:47;-6.10;1.00
35027;DHT22;60696;51.426;6.934;2024-01-10T06:58:12;-6.10;1.00
35027;DHT22;60696;51.426;6.934;2024-01-10T07:00:38;-6.00;1.00
35027;DHT22;60696;51.426;6.934;2024-01-10T07:03:04;-6.00;1.00
35027;DHT22;60696;51.426;6.934;2024-01-10T07:05:30;-6.00;1.00
35027;DHT22;60696;51.426;6.934;2024-01-10T07:07:57;-6.00;1.00
35027;DHT22;60696;51.426;6.934;2024-01-10T07:10:23;-6.00;1.00
35027;DHT22;60696;51.426;6.934;2024-01-10T07:12:55;-6.00;1.00
35027;DHT22;60696;51.426;6.934;2024-01-10T07:15:21;-6.00;1.00
35027;DHT22;60696;51.426;6.934;2024-01-10T07:17:47;-6.00;1.00
35027;DHT22;60696;51.426;6.934;2024-01-10T07:20:13;-6.00;1.00
35027;DHT22;60696;51.426;6.934;2024-01-10T07:22:39;-5.90;1.00
35027;DHT22;60696;51.426;6.934;2024-01-10T07:25:07;-5.90;1.00
35027;DHT22;60696;51.426;6.934;2024-01-10T07:27:34;-5.90;1.00
35027;DHT22;60696;51.426;6.934;2024-01-10T07:30:08;-5.90;1.00
35027;DHT22;60696;51.426;6.934;2024-01-10T07:32:45;-6.00;1.00
35027;DHT22;60696;51.426;6.934;2024-01-10T07:35:12;-6.00;1.00
35027;DHT22;60696;51.426;6.934;2024-01-10T07:37:38;-5.90;1.00
35027;DHT22;60696;51.426;6.934;2024-01-10T07:40:05;-5.90;1.00
35027;DHT22;60696;51.426;6.934;2024-01-10T07:42:35;-5.90;1.00
35027;DHT22;60696;51.426;6.934;2024-01-10T07:45:01;-5.90;1.00
35027;DHT22;60696;51.426;6.934;2024-01-10T07:47:30;-5.90;1.00
35027;DHT22;60696;51.426;6.934;2024-01-10T07:50:07;-5.90;1.00
35027;DHT22;60696;51.426;6.934;2024-01-10T07:52:33;-5.90;1.00
35027;DHT22;60696;51.426;6.934;2024-01-10T07:54:59;-5.90;1.00
35027;DHT22;60696;51.426;6.934;2024-01-10T07:57:25;-5.90;1.00
35027;DHT22;60696;51.426;6.934;2024-01-10T07:59:53;-5.70;1.00
35027;DHT22;60696;51.426;6.934;2024-01-10T08:02:18;-5.80;1.00
35027;DHT22;60696;51.426;6.934;2024-01-10T08:04:44;-5.80;1.00
35027;DHT22;60696;51.426;6.934;2024-01-10T08:07:09;-5.80;1.00
35027;DHT22;60696;51.426;6.934;2024-01-10T08:09:36;-5.70;1.00
35027;DHT22;60696;51.426;6.934;2024-01-10T08:12:02;-5.70;1.00
35027;DHT22;60696;51.426;6.934;2024-01-10T08:14:28;-5.70;1.00
35027;DHT22;60696;51.426;6.934;2024-01-10T08:16:54;-5.70;1.00
35027;DHT22;60696;51.426;6.934;2024-01-10T08:19:22;-5.70;1.00
35027;DHT22;60696;51.426;6.934;2024-01-10T08:21:48;-5.60;1.00
35027;DHT22;60696;51.426;6.934;2024-01-10T08:24:13;-5.70;1.00
35027;DHT22;60696;51.426;6.934;2024-01-10T08:26:39;-5.60;1.00
35027;DHT22;60696;51.426;6.934;2024-01-10T08:29:04;-5.60;1.00
35027;DHT22;60696;51.426;6.934;2024-01-10T08:31:30;-5.70;1.00
35027;DHT22;60696;51.426;6.934;2024-01-10T08:33:55;-5.60;1.00
35027;DHT22;60696;51.426;6.934;2024-01-10T08:36:24;-5.50;1.00
35027;DHT22;60696;51.426;6.934;2024-01-10T08:38:50;-5.40;1.00
35027;DHT22;60696;51.426;6.934;2024-01-10T08:41:16;-5.40;1.00
35027;DHT22;60696;51.426;6.934;2024-01-10T08:43:42;-5.30;1.00
35027;DHT22;60696;51.426;6.934;2024-01-10T08:46:08;-5.00;1.00
35027;DHT22;60696;51.426;6.934;2024-01-10T08:48:35;-5.00;1.00
35027;DHT22;60696;51.426;6.934;2024-01-10T08:51:02;-4.90;1.00
35027;DHT22;60696;51.426;6.934;2024-01-10T08:53:27;-4.60;1.00
35027;DHT22;60696;51.426;6.934;2024-01-10T08:55:53;-4.30;1.00
35027;DHT22;60696;51.426;6.934;2024-01-10T08:58:19;-4.00;1.00
35027;DHT22;60696;51.426;6.934;2024-01-10T09:00:45;-4.00;1.00
35027;DHT22;60696;51.426;6.934;2024-01-10T09:03:10;-4.20;1.00
35027;DHT22;60696;51.426;6.934;2024-01-10T09:05:36;-3.70;1.00
35027;DHT22;60696;51.426;6.934;2024-01-10T09:08:02;-3.80;1.00
35027;DHT22;60696;51.426;6.934;2024-01-10T09:10:28;-3.40;1.00
35027;DHT22;60696;51.426;6.934;2024-01-10T09:12:54;-3.50;1.00
35027;DHT22;60696;51.426;6.934;2024-01-10T09:15:19;-3.40;1.00
35027;DHT22;60696;51.426;6.934;2024-01-10T09:17:45;-3.00;1.00
35027;DHT22;60696;51.426;6.934;2024-01-10T09:20:11;-3.10;1.00
35027;DHT22;60696;51.426;6.934;2024-01-10T09:22:38;-2.90;1.00
35027;DHT22;60696;51.426;6.934;2024-01-10T09:25:07;-2.70;1.00
35027;DHT22;60696;51.426;6.934;2024-01-10T09:27:34;-2.30;1.00
35027;DHT22;60696;51.426;6.934;2024-01-10T09:30:01;-2.50;1.00
35027;DHT22;60696;51.426;6.934;2024-01-10T09:32:36;-2.50;1.00
35027;DHT22;60696;51.426;6.934;2024-01-10T09:35:02;-2.60;1.00
35027;DHT22;60696;51.426;6.934;2024-01-10T09:37:27;-2.60;1.00
35027;DHT22;60696;51.426;6.934;2024-01-10T09:39:53;-2.50;1.00
35027;DHT22;60696;51.426;6.934;2024-01-10T09:42:19;-2.30;1.00
35027;DHT22;60696;51.426;6.934;2024-01-10T09:44:49;-2.20;1.00
35027;DHT22;60696;51.426;6.934;2024-01-10T09:47:15;-2.30;1.00
35027;DHT22;60696;51.426;6.934;2024-01-10T09:49:42;-2.40;1.00
35027;DHT22;60696;51.426;6.934;2024-01-10T09:52:10;-2.40;1.00
35027;DHT22;60696;51.426;6.934;2024-01-10T09:54:40;-2.30;1.00
35027;DHT22;60696;51.426;6.934;2024-01-10T09:57:06;-2.10;1.00
35027;DHT22;60696;51.426;6.934;2024-01-10T09:59:31;-2.20;1.00
35027;DHT22;60696;51.426;6.934;2024-01-10T10:01:57;-1.90;1.00
35027;DHT22;60696;51.426;6.934;2024-01-10T10:04:27;-1.70;1.00
35027;DHT22;60696;51.426;6.934;2024-01-10T10:06:59;-1.70;1.00
35027;DHT22;60696;51.426;6.934;2024-01-10T10:09:26;-1.60;1.00
35027;DHT22;60696;51.426;6.934;2024-01-10T10:11:54;-1.60;1.00
35027;DHT22;60696;51.426;6.934;2024-01-10T10:14:20;-1.60;1.00
35027;DHT22;60696;51.426;6.934;2024-01-10T10:16:45;-1.10;1.00
35027;DHT22;60696;51.426;6.934;2024-01-10T10:19:11;-1.20;1.00
35027;DHT22;60696;51.426;6.934;2024-01-10T10:21:38;-1.50;1.00
35027;DHT22;60696;51.426;6.934;2024-01-10T10:24:05;-0.80;1.00
35027;DHT22;60696;51.426;6.934;2024-01-10T10:26:33;-0.90;1.00
35027;DHT22;60696;51.426;6.934;2024-01-10T10:28:59;-0.70;1.00
35027;DHT22;60696;51.426;6.934;2024-01-10T10:31:24;-0.80;1.00
35027;DHT22;60696;51.426;6.934;2024-01-10T10:33:51;-0.10;1.00
35027;DHT22;60696;51.426;6.934;2024-01-10T10:36:17;-0.90;1.00
35027;DHT22;60696;51.426;6.934;2024-01-10T10:38:43;-0.40;1.00
35027;DHT22;60696;51.426;6.934;2024-01-10T10:41:09;-0.60;1.00
35027;DHT22;60696;51.426;6.934;2024-01-10T10:43:39;-0.50;1.00
35027;DHT22;60696;51.426;6.934;2024-01-10T10:46:05;-0.50;1.00
35027;DHT22;60696;51.426;6.934;2024-01-10T10:48:42;0.30;1.00
35027;DHT22;60696;51.426;6.934;2024-01-10T10:51:10;1.10;1.00
35027;DHT22;60696;51.426;6.934;2024-01-10T10:53:39;0.90;1.00
35027;DHT22;60696;51.426;6.934;2024-01-10T10:56:07;0.80;1.00
35027;DHT22;60696;51.426;6.934;2024-01-10T10:58:43;0.70;1.00
35027;DHT22;60696;51.426;6.934;2024-01-10T11:01:11;0.90;1.00
35027;DHT22;60696;51.426;6.934;2024-01-10T11:03:38;1.30;1.00
35027;DHT22;60696;51.426;6.934;2024-01-10T11:06:06;1.50;1.00
35027;DHT22;60696;51.426;6.934;2024-01-10T11:08:49;3.20;1.00
35027;DHT22;60696;51.426;6.934;2024-01-10T11:14:54;1.80;1.00
35027;DHT22;60696;51.426;6.934;2024-01-10T11:17:41;2.00;1.00
35027;DHT22;60696;51.426;6.934;2024-01-10T11:20:21;0.90;1.00
35027;DHT22;60696;51.426;6.934;2024-01-10T11:25:27;2.60;1.00
35027;DHT22;60696;51.426;6.934;2024-01-10T11:27:55;2.70;1.00
35027;DHT22;60696;51.426;6.934;2024-01-10T11:30:37;2.60;1.00
35027;DHT22;60696;51.426;6.934;2024-01-10T11:33:23;4.20;1.00
35027;DHT22;60696;51.426;6.934;2024-01-10T11:36:06;4.20;1.00
35027;DHT22;60696;51.426;6.934;2024-01-10T11:41:24;2.00;1.00
35027;DHT22;60696;51.426;6.934;2024-01-10T11:46:45;2.20;1.00
35027;DHT22;60696;51.426;6.934;2024-01-10T11:49:13;3.90;1.00
35027;DHT22;60696;51.426;6.934;2024-01-10T11:51:42;4.50;1.00
35027;DHT22;60696;51.426;6.934;2024-01-10T11:54:08;3.30;1.00
35027;DHT22;60696;51.426;6.934;2024-01-10T11:56:41;2.90;1.00
35027;DHT22;60696;51.426;6.934;2024-01-10T11:59:09;4.60;1.00
35027;DHT22;60696;51.426;6.934;2024-01-10T12:01:37;5.80;1.00
35027;DHT22;60696;51.426;6.934;2024-01-10T12:04:03;5.70;1.00
35027;DHT22;60696;51.426;6.934;2024-01-10T12:06:36;4.10;1.00
35027;DHT22;60696;51.426;6.934;2024-01-10T12:09:06;2.20;1.00
35027;DHT22;60696;51.426;6.934;2024-01-10T12:11:35;2.10;1.00
35027;DHT22;60696;51.426;6.934;2024-01-10T12:14:01;4.20;1.00
35027;DHT22;60696;51.426;6.934;2024-01-10T12:16:27;4.90;1.00
35027;DHT22;60696;51.426;6.934;2024-01-10T12:18:55;5.20;1.00
35027;DHT22;60696;51.426;6.934;2024-01-10T12:21:20;3.10;1.00
35027;DHT22;60696;51.426;6.934;2024-01-10T12:23:47;2.70;1.00
35027;DHT22;60696;51.426;6.934;2024-01-10T12:26:14;3.30;1.00
35027;DHT22;60696;51.426;6.934;2024-01-10T12:28:40;3.10;1.00
35027;DHT22;60696;51.426;6.934;2024-01-10T12:31:06;3.60;1.00
35027;DHT22;60696;51.426;6.934;2024-01-10T12:33:37;3.30;1.00
35027;DHT22;60696;51.426;6.934;2024-01-10T12:36:10;3.70;1.00
35027;DHT22;60696;51.426;6.934;2024-01-10T12:38:37;2.60;1.00
35027;DHT22;60696;51.426;6.934;2024-01-10T12:41:04;2.00;1.00
35027;DHT22;60696;51.426;6.934;2024-01-10T12:43:30;3.10;1.00
35027;DHT22;60696;51.426;6.934;2024-01-10T12:46:12;4.50;1.00
35027;DHT22;60696;51.426;6.934;2024-01-10T12:48:39;5.10;1.00
35027;DHT22;60696;51.426;6.934;2024-01-10T12:51:08;5.20;1.00
35027;DHT22;60696;51.426;6.934;2024-01-10T12:53:41;5.40;1.00
35027;DHT22;60696;51.426;6.934;2024-01-10T12:56:08;5.30;1.00
35027;DHT22;60696;51.426;6.934;2024-01-10T12:58:35;4.50;1.00
35027;DHT22;60696;51.426;6.934;2024-01-10T13:01:03;4.60;1.00
35027;DHT22;60696;51.426;6.934;2024-01-10T13:03:32;4.40;1.00
35027;DHT22;60696;51.426;6.934;2024-01-10T13:05:58;4.40;1.00
35027;DHT22;60696;51.426;6.934;2024-01-10T13:08:24;5.10;1.00
35027;DHT22;60696;51.426;6.934;2024-01-10T13:10:49;3.40;1.00
35027;DHT22;60696;51.426;6.934;2024-01-10T13:13:15;3.00;1.00
35027;DHT22;60696;51.426;6.934;2024-01-10T13:15:43;4.30;1.00
35027;DHT22;60696;51.426;6.934;2024-01-10T13:18:09;5.30;1.00
35027;DHT22;60696;51.426;6.934;2024-01-10T13:20:37;4.20;1.00
35027;DHT22;60696;51.426;6.934;2024-01-10T13:23:06;4.50;1.00
35027;DHT22;60696;51.426;6.934;2024-01-10T13:25:31;3.50;1.00
35027;DHT22;60696;51.426;6.934;2024-01-10T13:27:57;2.90;1.00
35027;DHT22;60696;51.426;6.934;2024-01-10T13:30:22;2.10;1.00
35027;DHT22;60696;51.426;6.934;2024-01-10T13:32:48;1.90;1.00
35027;DHT22;60696;51.426;6.934;2024-01-10T13:35:15;1.70;1.00
35027;DHT22;60696;51.426;6.934;2024-01-10T13:37:42;1.30;1.00
35027;DHT22;60696;51.426;6.934;2024-01-10T13:40:08;1.40;1.00
35027;DHT22;60696;51.426;6.934;2024-01-10T13:42:43;1.30;1.00
35027;DHT22;60696;51.426;6.934;2024-01-10T13:45:09;1.30;1.00
35027;DHT22;60696;51.426;6.934;2024-01-10T13:47:39;1.30;1.00
35027;DHT22;60696;51.426;6.934;2024-01-10T13:50:08;1.00;1.00
35027;DHT22;60696;51.426;6.934;2024-01-10T13:52:35;1.00;1.00
35027;DHT22;60696;51.426;6.934;2024-01-10T13:55:01;0.60;1.00
35027;DHT22;60696;51.426;6.934;2024-01-10T13:57:30;0.60;1.00
35027;DHT22;60696;51.426;6.934;2024-01-10T13:59:55;0.60;1.00
35027;DHT22;60696;51.426;6.934;2024-01-10T14:02:24;0.50;1.00
35027;DHT22;60696;51.426;6.934;2024-01-10T14:04:52;0.40;1.00
35027;DHT22;60696;51.426;6.934;2024-01-10T14:07:19;0.30;1.00
35027;DHT22;60696;51.426;6.934;2024-01-10T14:09:45;0.30;1.00
35027;DHT22;60696;51.426;6.934;2024-01-10T14:12:12;0.10;1.00
35027;DHT22;60696;51.426;6.934;2024-01-10T14:14:38;0.20;1.00
35027;DHT22;60696;51.426;6.934;2024-01-10T14:17:03;0.00;1.00
35027;DHT22;60696;51.426;6.934;2024-01-10T14:19:29;-0.10;1.00
35027;DHT22;60696;51.426;6.934;2024-01-10T14:21:55;-0.20;1.00
35027;DHT22;60696;51.426;6.934;2024-01-10T14:24:21;-0.20;1.00
35027;DHT22;60696;51.426;6.934;2024-01-10T14:26:46;-0.20;1.00
35027;DHT22;60696;51.426;6.934;2024-01-10T14:29:12;-0.30;1.00
35027;DHT22;60696;51.426;6.934;2024-01-10T14:31:38;-0.30;1.00
35027;DHT22;60696;51.426;6.934;2024-01-10T14:34:05;-0.30;1.00
35027;DHT22;60696;51.426;6.934;2024-01-10T14:36:31;-0.30;1.00
35027;DHT22;60696;51.426;6.934;2024-01-10T14:38:57;-0.30;1.00
35027;DHT22;60696;51.426;6.934;2024-01-10T14:41:22;-0.30;1.00
35027;DHT22;60696;51.426;6.934;2024-01-10T14:43:48;-0.40;1.00
35027;DHT22;60696;51.426;6.934;2024-01-10T14:46:14;-0.40;1.00
35027;DHT22;60696;51.426;6.934;2024-01-10T14:48:39;-0.40;1.00
35027;DHT22;60696;51.426;6.934;2024-01-10T14:51:05;-0.40;1.00
35027;DHT22;60696;51.426;6.934;2024-01-10T14:53:31;-0.40;1.00
35027;DHT22;60696;51.426;6.934;2024-01-10T14:55:56;-0.40;1.00
35027;DHT22;60696;51.426;6.934;2024-01-10T14:58:22;-0.40;1.00
35027;DHT22;60696;51.426;6.934;2024-01-10T15:00:48;-0.40;1.00
35027;DHT22;60696;51.426;6.934;2024-01-10T15:03:14;-0.40;1.00
35027;DHT22;60696;51.426;6.934;2024-01-10T15:05:41;-0.40;1.00
35027;DHT22;60696;51.426;6.934;2024-01-10T15:08:08;-0.50;1.00
35027;DHT22;60696;51.426;6.934;2024-01-10T15:10:35;-0.50;1.00
35027;DHT22;60696;51.426;6.934;2024-01-10T15:13:01;-0.50;1.00
35027;DHT22;60696;51.426;6.934;2024-01-10T15:15:27;-0.60;1.00
35027;DHT22;60696;51.426;6.934;2024-01-10T15:17:52;-0.70;1.00
35027;DHT22;60696;51.426;6.934;2024-01-10T15:20:18;-0.70;1.00
35027;DHT22;60696;51.426;6.934;2024-01-10T15:22:44;-0.70;1.00
35027;DHT22;60696;51.426;6.934;2024-01-10T15:25:09;-0.80;1.00
35027;DHT22;60696;51.426;6.934;2024-01-10T15:27:36;-0.80;1.00
35027;DHT22;60696;51.426;6.934;2024-01-10T15:30:02;-0.80;1.00
35027;DHT22;60696;51.426;6.934;2024-01-10T15:32:31;-0.80;1.00
35027;DHT22;60696;51.426;6.934;2024-01-10T15:34:56;-0.90;1.00
35027;DHT22;60696;51.426;6.934;2024-01-10T15:37:23;-0.90;1.00
35027;DHT22;60696;51.426;6.934;2024-01-10T15:39:48;-1.00;1.00
35027;DHT22;60696;51.426;6.934;2024-01-10T15:42:14;-1.00;1.00
35027;DHT22;60696;51.426;6.934;2024-01-10T15:44:41;-0.80;1.00
35027;DHT22;60696;51.426;6.934;2024-01-10T15:47:07;-0.90;1.00
35027;DHT22;60696;51.426;6.934;2024-01-10T15:49:32;-1.00;1.00
35027;DHT22;60696;51.426;6.934;2024-01-10T15:51:58;-1.00;1.00
35027;DHT22;60696;51.426;6.934;2024-01-10T15:54:24;-1.10;1.00
35027;DHT22;60696;51.426;6.934;2024-01-10T15:56:50;-1.10;1.00
35027;DHT22;60696;51.426;6.934;2024-01-10T15:59:15;-1.30;1.00
35027;DHT22;60696;51.426;6.934;2024-01-10T16:01:41;-1.30;1.00
35027;DHT22;60696;51.426;6.934;2024-01-10T16:04:07;-1.30;1.00
35027;DHT22;60696;51.426;6.934;2024-01-10T16:06:33;-1.30;1.00
35027;DHT22;60696;51.426;6.934;2024-01-10T16:09:02;-1.40;1.00
35027;DHT22;60696;51.426;6.934;2024-01-10T16:11:29;-1.30;1.00
35027;DHT22;60696;51.426;6.934;2024-01-10T16:13:55;-1.30;1.00
35027;DHT22;60696;51.426;6.934;2024-01-10T16:16:22;-1.40;1.00
35027;DHT22;60696;51.426;6.934;2024-01-10T16:18:48;-1.40;1.00
35027;DHT22;60696;51.426;6.934;2024-01-10T16:21:13;-1.50;1.00
35027;DHT22;60696;51.426;6.934;2024-01-10T16:23:39;-1.60;1.00
35027;DHT22;60696;51.426;6.934;2024-01-10T16:26:05;-1.70;1.00
35027;DHT22;60696;51.426;6.934;2024-01-10T16:28:30;-1.80;1.00
35027;DHT22;60696;51.426;6.934;2024-01-10T16:30:56;-1.80;1.00
35027;DHT22;60696;51.426;6.934;2024-01-10T16:33:21;-1.80;1.00
35027;DHT22;60696;51.426;6.934;2024-01-10T16:35:48;-1.90;1.00
35027;DHT22;60696;51.426;6.934;2024-01-10T16:38:14;-2.00;1.00
35027;DHT22;60696;51.426;6.934;2024-01-10T16:40:39;-2.20;1.00
35027;DHT22;60696;51.426;6.934;2024-01-10T16:43:05;-2.30;1.00
35027;DHT22;60696;51.426;6.934;2024-01-10T16:45:31;-2.30;1.00
35027;DHT22;60696;51.426;6.934;2024-01-10T16:47:59;-2.20;1.00
35027;DHT22;60696;51.426;6.934;2024-01-10T16:50:25;-2.20;1.00
35027;DHT22;60696;51.426;6.934;2024-01-10T16:52:55;-2.10;1.00
35027;DHT22;60696;51.426;6.934;2024-01-10T16:55:22;-2.20;1.00
35027;DHT22;60696;51.426;6.934;2024-01-10T16:57:48;-2.40;1.00
35027;DHT22;60696;51.426;6.934;2024-01-10T17:00:15;-2.50;1.00
35027;DHT22;60696;51.426;6.934;2024-01-10T17:02:41;-2.40;1.00
35027;DHT22;60696;51.426;6.934;2024-01-10T17:05:07;-2.30;1.00
35027;DHT22;60696;51.426;6.934;2024-01-10T17:07:34;-2.20;1.00
35027;DHT22;60696;51.426;6.934;2024-01-10T17:09:59;-2.10;1.00
35027;DHT22;60696;51.426;6.934;2024-01-10T17:12:25;-2.10;1.00
35027;DHT22;60696;51.426;6.934;2024-01-10T17:14:50;-2.00;1.00
35027;DHT22;60696;51.426;6.934;2024-01-10T17:17:16;-2.00;1.00
35027;DHT22;60696;51.426;6.934;2024-01-10T17:19:41;-2.10;1.00
35027;DHT22;60696;51.426;6.934;2024-01-10T17:22:07;-2.10;1.00
35027;DHT22;60696;51.426;6.934;2024-01-10T17:24:32;-2.10;1.00
35027;DHT22;60696;51.426;6.934;2024-01-10T17:26:58;-2.20;1.00
35027;DHT22;60696;51.426;6.934;2024-01-10T17:29:24;-2.20;1.00
35027;DHT22;60696;51.426;6.934;2024-01-10T17:31:49;-2.10;1.00
35027;DHT22;60696;51.426;6.934;2024-01-10T17:34:15;-2.00;1.00
35027;DHT22;60696;51.426;6.934;2024-01-10T17:36:40;-2.00;1.00
35027;DHT22;60696;51.426;6.934;2024-01-10T17:39:06;-1.90;1.00
35027;DHT22;60696;51.426;6.934;2024-01-10T17:41:32;-1.90;1.00
35027;DHT22;60696;51.426;6.934;2024-01-10T17:43:57;-2.00;1.00
35027;DHT22;60696;51.426;6.934;2024-01-10T17:46:24;-2.10;1.00
35027;DHT22;60696;51.426;6.934;2024-01-10T17:48:49;-2.00;1.00
35027;DHT22;60696;51.426;6.934;2024-01-10T17:51:16;-1.90;1.00
35027;DHT22;60696;51.426;6.934;2024-01-10T17:53:45;-1.90;1.00
35027;DHT22;60696;51.426;6.934;2024-01-10T17:56:10;-1.90;1.00
35027;DHT22;60696;51.426;6.934;2024-01-10T17:58:36;-1.90;1.00
35027;DHT22;60696;51.426;6.934;2024-01-10T18:01:02;-1.90;1.00
35027;DHT22;60696;51.426;6.934;2024-01-10T18:03:29;-1.80;1.00
35027;DHT22;60696;51.426;6.934;2024-01-10T18:05:54;-1.90;1.00
35027;DHT22;60696;51.426;6.934;2024-01-10T18:08:20;-1.90;1.00
35027;DHT22;60696;51.426;6.934;2024-01-10T18:10:45;-2.00;1.00
35027;DHT22;60696;51.426;6.934;2024-01-10T18:13:13;-2.00;1.00
35027;DHT22;60696;51.426;6.934;2024-01-10T18:15:39;-1.90;1.00
35027;DHT22;60696;51.426;6.934;2024-01-10T18:18:05;-2.00;1.00
35027;DHT22;60696;51.426;6.934;2024-01-10T18:20:31;-2.00;1.00
35027;DHT22;60696;51.426;6.934;2024-01-10T18:22:58;-2.00;1.00
35027;DHT22;60696;51.426;6.934;2024-01-10T18:25:23;-2.10;1.00
35027;DHT22;60696;51.426;6.934;2024-01-10T18:27:49;-2.10;1.00
35027;DHT22;60696;51.426;6.934;2024-01-10T18:30:14;-2.20;1.00
35027;DHT22;60696;51.426;6.934;2024-01-10T18:32:40;-2.20;1.00
35027;DHT22;60696;51.426;6.934;2024-01-10T18:35:06;-2.20;1.00
35027;DHT22;60696;51.426;6.934;2024-01-10T18:37:31;-2.20;1.00
35027;DHT22;60696;51.426;6.934;2024-01-10T18:39:57;-2.20;1.00
35027;DHT22;60696;51.426;6.934;2024-01-10T18:42:23;-2.30;1.00
35027;DHT22;60696;51.426;6.934;2024-01-10T18:44:48;-2.20;1.00
35027;DHT22;60696;51.426;6.934;2024-01-10T18:47:14;-2.30;1.00
35027;DHT22;60696;51.426;6.934;2024-01-10T18:49:40;-2.30;1.00
35027;DHT22;60696;51.426;6.934;2024-01-10T18:52:06;-2.20;1.00
35027;DHT22;60696;51.426;6.934;2024-01-10T18:54:33;-2.10;1.00
35027;DHT22;60696;51.426;6.934;2024-01-10T18:56:58;-2.20;1.00
35027;DHT22;60696;51.426;6.934;2024-01-10T18:59:24;-2.10;1.00
35027;DHT22;60696;51.426;6.934;2024-01-10T19:01:49;-2.10;1.00
35027;DHT22;60696;51.426;6.934;2024-01-10T19:04:15;-2.10;1.00
35027;DHT22;60696;51.426;6.934;2024-01-10T19:06:41;-2.20;1.00
35027;DHT22;60696;51.426;6.934;2024-01-10T19:09:07;-2.10;1.00
35027;DHT22;60696;51.426;6.934;2024-01-10T19:11:33;-2.20;1.00
35027;DHT22;60696;51.426;6.934;2024-01-10T19:13:58;-2.20;1.00
35027;DHT22;60696;51.426;6.934;2024-01-10T19:16:24;-2.20;1.00
35027;DHT22;60696;51.426;6.934;2024-01-10T19:18:50;-2.30;1.00
35027;DHT22;60696;51.426;6.934;2024-01-10T19:21:15;-2.40;1.00
35027;DHT22;60696;51.426;6.934;2024-01-10T19:23:41;-2.60;1.00
35027;DHT22;60696;51.426;6.934;2024-01-10T19:26:20;-2.50;1.00
35027;DHT22;60696;51.426;6.934;2024-01-10T19:28:46;-2.40;1.00
35027;DHT22;60696;51.426;6.934;2024-01-10T19:31:11;-2.40;1.00
35027;DHT22;60696;51.426;6.934;2024-01-10T19:33:37;-2.30;1.00
35027;DHT22;60696;51.426;6.934;2024-01-10T19:36:03;-2.40;1.00
35027;DHT22;60696;51.426;6.934;2024-01-10T19:38:28;-2.40;1.00
35027;DHT22;60696;51.426;6.934;2024-01-10T19:40:54;-2.30;1.00
35027;DHT22;60696;51.426;6.934;2024-01-10T19:43:23;-2.30;1.00
35027;DHT22;60696;51.426;6.934;2024-01-10T19:45:50;-2.30;1.00
35027;DHT22;60696;51.426;6.934;2024-01-10T19:48:16;-2.40;1.00
35027;DHT22;60696;51.426;6.934;2024-01-10T19:50:41;-2.50;1.00
35027;DHT22;60696;51.426;6.934;2024-01-10T19:53:07;-2.50;1.00
35027;DHT22;60696;51.426;6.934;2024-01-10T19:55:35;-2.50;1.00
35027;DHT22;60696;51.426;6.934;2024-01-10T19:58:01;-2.50;1.00
35027;DHT22;60696;51.426;6.934;2024-01-10T20:00:26;-2.70;1.00
35027;DHT22;60696;51.426;6.934;2024-01-10T20:02:52;-2.80;1.00
35027;DHT22;60696;51.426;6.934;2024-01-10T20:05:17;-2.80;1.00
35027;DHT22;60696;51.426;6.934;2024-01-10T20:07:43;-2.80;1.00
35027;DHT22;60696;51.426;6.934;2024-01-10T20:10:09;-2.80;1.00
35027;DHT22;60696;51.426;6.934;2024-01-10T20:12:35;-2.90;1.00
35027;DHT22;60696;51.426;6.934;2024-01-10T20:15:00;-2.80;1.00
35027;DHT22;60696;51.426;6.934;2024-01-10T20:17:26;-2.90;1.00
35027;DHT22;60696;51.426;6.934;2024-01-10T20:19:51;-2.90;4.10
35027;DHT22;60696;51.426;6.934;2024-01-10T20:22:19;-2.90;7.80
35027;DHT22;60696;51.426;6.934;2024-01-10T20:24:45;-2.90;12.00
35027;DHT22;60696;51.426;6.934;2024-01-10T20:27:11;-2.90;9.60
35027;DHT22;60696;51.426;6.934;2024-01-10T20:29:37;-2.90;16.10
35027;DHT22;60696;51.426;6.934;2024-01-10T20:32:02;-2.90;14.90
35027;DHT22;60696;51.426;6.934;2024-01-10T20:34:31;-3.00;14.20
35027;DHT22;60696;51.426;6.934;2024-01-10T20:36:57;-2.90;13.90
35027;DHT22;60696;51.426;6.934;2024-01-10T20:39:23;-2.80;16.00
35027;DHT22;60696;51.426;6.934;2024-01-10T20:41:49;-2.70;2.70
35027;DHT22;60696;51.426;6.934;2024-01-10T20:44:14;-2.70;1.20
35027;DHT22;60696;51.426;6.934;2024-01-10T20:46:40;-2.70;5.00
35027;DHT22;60696;51.426;6.934;2024-01-10T20:49:05;-2.60;2.20
35027;DHT22;60696;51.426;6.934;2024-01-10T20:51:31;-2.70;1.20
35027;DHT22;60696;51.426;6.934;2024-01-10T20:53:57;-2.80;3.20
35027;DHT22;60696;51.426;6.934;2024-01-10T20:56:22;-2.90;13.50
35027;DHT22;60696;51.426;6.934;2024-01-10T20:58:48;-3.00;35.80